Time,TemperatureF,DewpointF,PressureIn,WindDirection,WindDirectionDegrees,WindSpeedMPH,WindSpeedGustMPH,Humidity,HourlyPrecipIn,Conditions,Clouds,dailyrainin,SoftwareType,DateUTC
2013-10-25 07:21:00,34.0,31.0,30.17,NNE,25,0.0,0.0,87,-99.99,,,-99.99,,2013-10-25 13:21:00,
2013-10-25 07:32:00,34.0,31.0,30.17,NNE,25,0.0,0.0,87,-99.99,,,-99.99,,2013-10-25 13:32:00,
2013-10-25 07:42:00,34.0,31.0,30.17,NNE,25,0.0,0.0,87,-99.99,,,-99.99,,2013-10-25 13:42:00,
2013-10-25 07:52:00,34.0,31.0,30.17,NNE,15,0.0,0.0,89,-99.99,,,-99.99,,2013-10-25 13:52:00,
2013-10-25 08:02:00,34.0,31.0,30.17,NNE,15,0.0,0.0,89,-99.99,,,-99.99,,2013-10-25 14:02:00,
2013-10-25 08:11:00,34.0,31.0,30.17,NNE,15,0.0,0.0,89,-99.99,,,-99.99,,2013-10-25 14:11:00,
2013-10-25 08:22:00,34.0,31.0,30.17,NNE,14,0.0,0.0,90,-99.99,,,-99.99,,2013-10-25 14:22:00,
2013-10-25 08:31:00,34.0,31.0,30.17,NNE,14,0.0,0.0,90,-99.99,,,-99.99,,2013-10-25 14:31:00,
2013-10-25 08:52:00,36.0,33.0,30.17,NW,314,0.0,0.0,88,-99.99,,,-99.99,,2013-10-25 14:52:00,
2013-10-25 09:01:00,36.0,33.0,30.17,NW,314,0.0,0.0,88,-99.99,,,-99.99,,2013-10-25 15:01:00,
2013-10-25 09:11:00,36.0,33.0,30.17,NW,314,0.0,0.0,88,-99.99,,,-99.99,,2013-10-25 15:11:00,
2013-10-25 09:21:00,38.0,33.0,30.18,NW,314,0.0,0.0,83,-99.99,,,-99.99,,2013-10-25 15:21:00,
2013-10-25 09:33:00,38.0,33.0,30.18,NW,314,0.0,0.0,83,-99.99,,,-99.99,,2013-10-25 15:33:00,
2013-10-25 09:43:00,38.0,33.0,30.18,NW,314,0.0,0.0,83,-99.99,,,-99.99,,2013-10-25 15:43:00,
2013-10-25 09:53:00,40.0,35.0,30.18,WSW,251,1.0,0.0,81,-99.99,,,-99.99,,2013-10-25 15:53:00,
2013-10-25 10:03:00,40.0,35.0,30.18,WSW,251,1.0,0.0,81,-99.99,,,-99.99,,2013-10-25 16:03:00,
2013-10-25 10:13:00,40.0,35.0,30.18,WSW,251,1.0,0.0,81,-99.99,,,-99.99,,2013-10-25 16:13:00,
2013-10-25 10:23:00,44.0,34.0,30.17,SSW,194,0.0,0.0,68,-99.99,,,-99.99,,2013-10-25 16:23:00,
2013-10-25 10:43:00,45.0,35.0,30.16,WSW,240,1.0,0.0,67,-99.99,,,-99.99,,2013-10-25 16:43:00,
2013-10-25 10:53:00,46.0,33.0,30.15,South,187,0.0,0.0,61,-99.99,,,-99.99,,2013-10-25 16:53:00,
2013-10-25 11:13:00,48.0,35.0,30.15,SSE,149,0.0,0.0,61,-99.99,,,-99.99,,2013-10-25 17:13:00,
2013-10-25 11:22:00,52.0,36.0,30.14,West,274,0.0,0.0,55,-99.99,,,-99.99,,2013-10-25 17:22:00,
2013-10-25 11:43:00,54.0,38.0,30.13,West,278,0.0,0.0,54,-99.99,,,-99.99,,2013-10-25 17:43:00,
2013-10-25 11:52:00,55.0,36.0,30.12,NE,41,2.0,0.0,48,-99.99,,,-99.99,,2013-10-25 17:52:00,
2013-10-25 12:02:00,55.0,36.0,30.12,NE,41,2.0,0.0,48,-99.99,,,-99.99,,2013-10-25 18:02:00,
2013-10-25 12:12:00,55.0,36.0,30.12,NE,41,2.0,0.0,48,-99.99,,,-99.99,,2013-10-25 18:12:00,
2013-10-25 12:21:00,55.0,36.0,30.12,ESE,104,7.0,0.0,49,-99.99,,,-99.99,,2013-10-25 18:21:00,
2013-10-25 12:52:00,56.0,38.0,30.10,ENE,65,6.0,0.0,50,-99.99,,,-99.99,,2013-10-25 18:52:00,
2013-10-25 13:02:00,56.0,38.0,30.10,ENE,65,6.0,0.0,50,-99.99,,,-99.99,,2013-10-25 19:02:00,
2013-10-25 13:11:00,56.0,38.0,30.10,ENE,65,6.0,0.0,50,-99.99,,,-99.99,,2013-10-25 19:11:00,
2013-10-25 13:22:00,56.0,37.0,30.09,NE,44,2.0,0.0,48,-99.99,,,-99.99,,2013-10-25 19:22:00,
2013-10-25 13:42:00,56.0,37.0,30.08,NE,53,2.0,0.0,48,-99.99,,,-99.99,,2013-10-25 19:42:00,
2013-10-25 13:52:00,56.0,36.0,30.06,NNW,330,1.0,0.0,47,-99.99,,,-99.99,,2013-10-25 19:52:00,
2013-10-25 14:11:00,58.0,37.0,30.06,SSW,205,3.0,0.0,45,-99.99,,,-99.99,,2013-10-25 20:11:00,
2013-10-25 14:22:00,58.0,37.0,30.06,SSW,205,3.0,0.0,45,-99.99,,,-99.99,,2013-10-25 20:22:00,
2013-10-25 14:42:00,56.0,34.0,30.06,NW,319,2.0,0.0,43,-99.99,,,-99.99,,2013-10-25 20:42:00,
2013-10-25 14:52:00,54.0,36.0,30.05,SSW,211,3.0,0.0,51,-99.99,,,-99.99,,2013-10-25 20:52:00,
2013-10-25 15:11:00,53.0,36.0,30.06,East,101,0.0,0.0,53,-99.99,,,-99.99,,2013-10-25 21:11:00,
2013-10-25 15:21:00,50.0,38.0,30.08,SW,224,5.0,0.0,62,-99.99,,,-99.99,,2013-10-25 21:21:00,
2013-10-25 15:43:00,48.0,39.0,30.09,SW,226,1.0,0.0,72,-99.99,,,-99.99,,2013-10-25 21:43:00,
2013-10-25 15:54:00,45.0,41.0,30.10,SSW,200,3.0,0.0,85,-99.99,,,-99.99,,2013-10-25 21:54:00,
2013-10-25 16:23:00,44.0,39.0,30.11,SSE,156,5.0,0.0,84,-99.99,,,-99.99,,2013-10-25 22:23:00,
2013-10-25 16:42:00,44.0,41.0,30.11,South,190,3.0,0.0,88,-99.99,,,-99.99,,2013-10-25 22:42:00,
2013-10-25 16:52:00,44.0,41.0,30.11,SSE,163,2.0,0.0,88,-99.99,,,-99.99,,2013-10-25 22:52:00,
2013-10-25 17:22:00,43.0,39.0,30.12,WSW,245,4.0,0.0,86,-99.99,,,-99.99,,2013-10-25 23:22:00,
2013-10-25 17:33:00,43.0,39.0,30.12,WSW,245,4.0,0.0,86,-99.99,,,-99.99,,2013-10-25 23:33:00,
2013-10-25 17:42:00,43.0,39.0,30.12,WSW,245,4.0,0.0,86,-99.99,,,-99.99,,2013-10-25 23:42:00,
2013-10-25 17:52:00,43.0,38.0,30.12,SE,146,3.0,0.0,84,-99.99,,,-99.99,,2013-10-25 23:52:00,
2013-10-25 18:11:00,43.0,39.0,30.13,SE,141,1.0,0.0,86,-99.99,,,-99.99,,2013-10-26 00:11:00,
2013-10-25 18:21:00,43.0,39.0,30.14,South,179,1.0,0.0,87,-99.99,,,-99.99,,2013-10-26 00:21:00,
2013-10-25 18:42:00,43.0,39.0,30.14,SW,216,3.0,0.0,86,-99.99,,,-99.99,,2013-10-26 00:42:00,
2013-10-25 18:52:00,43.0,39.0,30.14,SW,216,3.0,0.0,86,-99.99,,,-99.99,,2013-10-26 00:52:00,
2013-10-25 19:12:00,43.0,39.0,30.16,WSW,238,4.0,0.0,87,-99.99,,,-99.99,,2013-10-26 01:12:00,
2013-10-25 19:21:00,43.0,39.0,30.17,SW,218,1.0,0.0,87,-99.99,,,-99.99,,2013-10-26 01:21:00,
2013-10-25 19:32:00,43.0,39.0,30.17,SW,218,1.0,0.0,87,-99.99,,,-99.99,,2013-10-26 01:32:00,
2013-10-25 19:42:00,43.0,39.0,30.17,SW,218,1.0,0.0,87,-99.99,,,-99.99,,2013-10-26 01:42:00,
2013-10-25 19:52:00,43.0,39.0,30.17,SW,218,1.0,0.0,87,-99.99,,,-99.99,,2013-10-26 01:52:00,
2013-10-25 20:12:00,43.0,39.0,30.18,SSW,204,1.0,0.0,87,-99.99,,,-99.99,,2013-10-26 02:12:00,
2013-10-25 20:22:00,43.0,39.0,30.18,SSW,204,1.0,0.0,87,-99.99,,,-99.99,,2013-10-26 02:22:00,
2013-10-25 20:42:00,42.0,39.0,30.18,West,276,0.0,0.0,88,-99.99,,,-99.99,,2013-10-26 02:42:00,
2013-10-25 20:52:00,42.0,39.0,30.18,West,276,0.0,0.0,88,-99.99,,,-99.99,,2013-10-26 02:52:00,
2013-10-25 21:12:00,42.0,38.0,30.19,South,170,2.0,0.0,87,-99.99,,,-99.99,,2013-10-26 03:12:00,
2013-10-25 21:22:00,42.0,38.0,30.19,SSE,153,0.0,0.0,87,-99.99,,,-99.99,,2013-10-26 03:22:00,
2013-10-25 21:44:00,42.0,38.0,30.19,SSE,156,0.0,0.0,87,-99.99,,,-99.99,,2013-10-26 03:44:00,
2013-10-25 21:54:00,41.0,38.0,30.19,SSE,157,0.0,0.0,88,-99.99,,,-99.99,,2013-10-26 03:54:00,
2013-10-25 22:04:00,41.0,38.0,30.19,SSE,157,0.0,0.0,88,-99.99,,,-99.99,,2013-10-26 04:04:00,
2013-10-25 22:14:00,41.0,38.0,30.19,SSE,157,0.0,0.0,88,-99.99,,,-99.99,,2013-10-26 04:14:00,
2013-10-25 22:24:00,41.0,38.0,30.20,SSE,149,0.0,0.0,90,-99.99,,,-99.99,,2013-10-26 04:24:00,
2013-10-25 22:44:00,41.0,38.0,30.20,East,96,1.0,0.0,88,-99.99,,,-99.99,,2013-10-26 04:44:00,
2013-10-25 22:54:00,40.0,37.0,30.20,East,86,1.0,0.0,89,-99.99,,,-99.99,,2013-10-26 04:54:00,
2013-10-25 23:13:00,38.0,35.0,30.20,East,94,0.0,0.0,90,-99.99,,,-99.99,,2013-10-26 05:13:00,
2013-10-25 23:23:00,38.0,35.0,30.20,East,94,0.0,0.0,90,-99.99,,,-99.99,,2013-10-26 05:23:00,
2013-10-25 23:43:00,37.0,35.0,30.20,East,95,0.0,0.0,92,-99.99,,,-99.99,,2013-10-26 05:43:00,
2013-10-25 23:52:00,36.0,34.0,30.21,East,95,0.0,0.0,93,-99.99,,,-99.99,,2013-10-26 05:52:00,